sensor_id;sensor_type;location;lat;lon;timestamp;pressure;altitude;pressure_sealevel;temperature;humidity
15670;BME280;18524;45.190;5.732;2022-12-07T00:01:10;99362.91;;;5.27;95.25
15670;BME280;18524;45.190;5.732;2022-12-07T00:06:02;99365.66;;;5.09;95.37
15670;BME280;18524;45.190;5.732;2022-12-07T00:10:52;99360.22;;;5.13;97.48
15670;BME280;18524;45.190;5.732;2022-12-07T00:15:43;99356.50;;;5.17;95.92
15670;BME280;18524;45.190;5.732;2022-12-07T00:20:34;99351.50;;;5.14;96.96
15670;BME280;18524;45.190;5.732;2022-12-07T00:25:24;99349.47;;;5.19;96.94
15670;BME280;18524;45.190;5.732;2022-12-07T00:30:15;99347.81;;;5.02;97.66
15670;BME280;18524;45.190;5.732;2022-12-07T00:35:05;99346.63;;;5.08;97.44
15670;BME280;18524;45.190;5.732;2022-12-07T00:39:56;99349.66;;;5.00;97.80
15670;BME280;18524;45.190;5.732;2022-12-07T00:44:46;99351.91;;;5.07;98.28
15670;BME280;18524;45.190;5.732;2022-12-07T00:49:36;99345.72;;;5.09;97.73
15670;BME280;18524;45.190;5.732;2022-12-07T00:54:27;99353.84;;;5.19;98.96
15670;BME280;18524;45.190;5.732;2022-12-07T00:59:17;99352.00;;;5.05;100.00
15670;BME280;18524;45.190;5.732;2022-12-07T01:04:08;99354.78;;;5.02;100.00
15670;BME280;18524;45.190;5.732;2022-12-07T01:08:59;99353.69;;;5.06;100.00
15670;BME280;18524;45.190;5.732;2022-12-07T01:13:51;99365.41;;;4.97;100.00
15670;BME280;18524;45.190;5.732;2022-12-07T01:18:44;99355.94;;;4.96;100.00
15670;BME280;18524;45.190;5.732;2022-12-07T01:23:35;99357.03;;;4.92;100.00
15670;BME280;18524;45.190;5.732;2022-12-07T01:28:26;99361.06;;;4.98;100.00
15670;BME280;18524;45.190;5.732;2022-12-07T01:33:17;99359.38;;;4.97;100.00
15670;BME280;18524;45.190;5.732;2022-12-07T01:38:07;99357.44;;;4.85;100.00
15670;BME280;18524;45.190;5.732;2022-12-07T01:42:57;99347.72;;;4.88;100.00
15670;BME280;18524;45.190;5.732;2022-12-07T01:47:53;99347.53;;;4.76;100.00
15670;BME280;18524;45.190;5.732;2022-12-07T01:52:45;99350.41;;;4.87;100.00
15670;BME280;18524;45.190;5.732;2022-12-07T01:57:42;99351.91;;;4.91;100.00
15670;BME280;18524;45.190;5.732;2022-12-07T02:02:36;99339.69;;;4.93;100.00
15670;BME280;18524;45.190;5.732;2022-12-07T02:07:29;99338.94;;;4.91;100.00
15670;BME280;18524;45.190;5.732;2022-12-07T02:12:20;99340.44;;;4.95;100.00
15670;BME280;18524;45.190;5.732;2022-12-07T02:22:33;99339.34;;;4.99;100.00
15670;BME280;18524;45.190;5.732;2022-12-07T02:32:41;99326.34;;;4.99;100.00
15670;BME280;18524;45.190;5.732;2022-12-07T02:42:34;99337.09;;;4.93;100.00
15670;BME280;18524;45.190;5.732;2022-12-07T02:47:27;99325.25;;;5.03;100.00
15670;BME280;18524;45.190;5.732;2022-12-07T02:52:19;99334.31;;;4.96;100.00
15670;BME280;18524;45.190;5.732;2022-12-07T02:58:13;99338.94;;;4.91;100.00
15670;BME280;18524;45.190;5.732;2022-12-07T03:08:01;99334.72;;;5.04;100.00
15670;BME280;18524;45.190;5.732;2022-12-07T03:13:19;99325.94;;;5.07;100.00
15670;BME280;18524;45.190;5.732;2022-12-07T03:18:07;99326.25;;;5.00;100.00
15670;BME280;18524;45.190;5.732;2022-12-07T03:23:00;99321.16;;;4.99;100.00
15670;BME280;18524;45.190;5.732;2022-12-07T03:27:59;99318.56;;;4.99;100.00
15670;BME280;18524;45.190;5.732;2022-12-07T03:33:07;99319.13;;;5.04;100.00
15670;BME280;18524;45.190;5.732;2022-12-07T03:38:25;99320.91;;;4.88;100.00
15670;BME280;18524;45.190;5.732;2022-12-07T03:43:19;99320.75;;;4.91;100.00
15670;BME280;18524;45.190;5.732;2022-12-07T03:48:24;99317.03;;;4.95;100.00
15670;BME280;18524;45.190;5.732;2022-12-07T03:53:29;99307.91;;;5.03;100.00
15670;BME280;18524;45.190;5.732;2022-12-07T03:58:24;99309.66;;;5.03;100.00
15670;BME280;18524;45.190;5.732;2022-12-07T04:03:15;99311.25;;;5.06;100.00
15670;BME280;18524;45.190;5.732;2022-12-07T04:08:05;99295.00;;;5.02;100.00
15670;BME280;18524;45.190;5.732;2022-12-07T04:12:55;99295.41;;;5.10;100.00
15670;BME280;18524;45.190;5.732;2022-12-07T04:17:46;99290.88;;;5.14;99.59
15670;BME280;18524;45.190;5.732;2022-12-07T04:22:36;99292.63;;;4.82;100.00
15670;BME280;18524;45.190;5.732;2022-12-07T04:27:27;99299.44;;;4.68;100.00
15670;BME280;18524;45.190;5.732;2022-12-07T04:32:17;99300.53;;;4.64;100.00
15670;BME280;18524;45.190;5.732;2022-12-07T04:37:07;99297.16;;;4.78;100.00
15670;BME280;18524;45.190;5.732;2022-12-07T04:41:59;99297.53;;;4.88;100.00
15670;BME280;18524;45.190;5.732;2022-12-07T04:46:51;99293.56;;;4.96;100.00
15670;BME280;18524;45.190;5.732;2022-12-07T04:51:42;99289.63;;;5.05;100.00
15670;BME280;18524;45.190;5.732;2022-12-07T04:56:33;99290.31;;;4.93;100.00
15670;BME280;18524;45.190;5.732;2022-12-07T05:01:25;99286.97;;;4.91;100.00
15670;BME280;18524;45.190;5.732;2022-12-07T05:06:15;99288.22;;;4.84;100.00
15670;BME280;18524;45.190;5.732;2022-12-07T05:11:06;99283.34;;;4.93;100.00
15670;BME280;18524;45.190;5.732;2022-12-07T05:15:57;99274.94;;;5.04;100.00
15670;BME280;18524;45.190;5.732;2022-12-07T05:20:48;99274.59;;;5.10;100.00
15670;BME280;18524;45.190;5.732;2022-12-07T05:25:38;99258.78;;;4.99;100.00
15670;BME280;18524;45.190;5.732;2022-12-07T05:30:29;99258.44;;;5.05;100.00
15670;BME280;18524;45.190;5.732;2022-12-07T05:35:19;99251.72;;;5.01;100.00
15670;BME280;18524;45.190;5.732;2022-12-07T05:40:10;99236.38;;;5.12;100.00
15670;BME280;18524;45.190;5.732;2022-12-07T05:45:01;99234.50;;;5.14;100.00
15670;BME280;18524;45.190;5.732;2022-12-07T05:49:52;99233.94;;;5.25;100.00
15670;BME280;18524;45.190;5.732;2022-12-07T05:54:42;99241.63;;;5.26;100.00
15670;BME280;18524;45.190;5.732;2022-12-07T05:59:33;99245.56;;;5.33;100.00
15670;BME280;18524;45.190;5.732;2022-12-07T06:04:25;99243.53;;;5.39;99.92
15670;BME280;18524;45.190;5.732;2022-12-07T06:09:16;99250.31;;;5.41;99.40
15670;BME280;18524;45.190;5.732;2022-12-07T06:14:08;99249.47;;;5.41;98.67
15670;BME280;18524;45.190;5.732;2022-12-07T06:18:58;99248.00;;;5.51;99.90
15670;BME280;18524;45.190;5.732;2022-12-07T06:23:49;99254.13;;;5.50;98.31
15670;BME280;18524;45.190;5.732;2022-12-07T06:28:39;99252.19;;;5.53;97.41
15670;BME280;18524;45.190;5.732;2022-12-07T06:33:30;99258.97;;;5.56;98.62
15670;BME280;18524;45.190;5.732;2022-12-07T06:38:21;99253.13;;;5.52;97.97
15670;BME280;18524;45.190;5.732;2022-12-07T06:43:12;99251.16;;;5.56;97.87
15670;BME280;18524;45.190;5.732;2022-12-07T06:48:02;99253.63;;;5.59;95.29
15670;BME280;18524;45.190;5.732;2022-12-07T06:52:52;99250.34;;;5.55;97.12
15670;BME280;18524;45.190;5.732;2022-12-07T06:57:43;99243.88;;;5.62;95.81
15670;BME280;18524;45.190;5.732;2022-12-07T07:02:33;99249.06;;;5.62;96.72
15670;BME280;18524;45.190;5.732;2022-12-07T07:07:24;99247.41;;;5.61;96.57
15670;BME280;18524;45.190;5.732;2022-12-07T07:12:14;99251.50;;;5.65;98.61
15670;BME280;18524;45.190;5.732;2022-12-07T07:17:04;99248.81;;;5.67;98.15
15670;BME280;18524;45.190;5.732;2022-12-07T07:21:55;99245.09;;;5.71;97.05
15670;BME280;18524;45.190;5.732;2022-12-07T07:26:45;99251.31;;;5.69;96.50
15670;BME280;18524;45.190;5.732;2022-12-07T07:31:35;99261.81;;;5.67;97.06
15670;BME280;18524;45.190;5.732;2022-12-07T07:36:27;99258.28;;;5.68;96.07
15670;BME280;18524;45.190;5.732;2022-12-07T07:41:17;99263.47;;;5.68;95.71
15670;BME280;18524;45.190;5.732;2022-12-07T07:46:07;99269.44;;;5.70;95.30
15670;BME280;18524;45.190;5.732;2022-12-07T07:50:58;99265.34;;;5.80;95.42
15670;BME280;18524;45.190;5.732;2022-12-07T07:55:52;99269.03;;;5.62;93.53
15670;BME280;18524;45.190;5.732;2022-12-07T08:00:43;99267.94;;;5.66;95.78
15670;BME280;18524;45.190;5.732;2022-12-07T08:05:34;99259.03;;;5.84;94.83
15670;BME280;18524;45.190;5.732;2022-12-07T08:10:24;99270.19;;;5.72;91.83
15670;BME280;18524;45.190;5.732;2022-12-07T08:15:14;99266.66;;;5.73;92.36
15670;BME280;18524;45.190;5.732;2022-12-07T08:20:05;99269.34;;;5.72;93.60
15670;BME280;18524;45.190;5.732;2022-12-07T08:24:56;99279.38;;;5.78;91.83
15670;BME280;18524;45.190;5.732;2022-12-07T08:29:46;99276.31;;;5.85;92.81
15670;BME280;18524;45.190;5.732;2022-12-07T08:34:37;99288.22;;;5.75;92.85
15670;BME280;18524;45.190;5.732;2022-12-07T08:39:27;99281.44;;;5.73;93.79
15670;BME280;18524;45.190;5.732;2022-12-07T08:44:17;99289.22;;;5.73;92.30
15670;BME280;18524;45.190;5.732;2022-12-07T08:49:12;99296.00;;;5.75;95.71
15670;BME280;18524;45.190;5.732;2022-12-07T08:54:06;99293.97;;;5.80;93.95
15670;BME280;18524;45.190;5.732;2022-12-07T08:58:58;99293.63;;;5.86;90.92
15670;BME280;18524;45.190;5.732;2022-12-07T09:03:48;99297.25;;;5.84;91.47
15670;BME280;18524;45.190;5.732;2022-12-07T09:08:43;99297.31;;;5.82;91.40
15670;BME280;18524;45.190;5.732;2022-12-07T09:13:33;99300.25;;;5.92;91.07
15670;BME280;18524;45.190;5.732;2022-12-07T09:18:24;99302.16;;;6.04;89.84
15670;BME280;18524;45.190;5.732;2022-12-07T09:23:15;99303.16;;;6.02;90.76
15670;BME280;18524;45.190;5.732;2022-12-07T09:28:05;99307.22;;;5.91;89.62
15670;BME280;18524;45.190;5.732;2022-12-07T09:32:56;99307.44;;;6.03;92.74
15670;BME280;18524;45.190;5.732;2022-12-07T09:37:47;99312.09;;;6.12;89.37
15670;BME280;18524;45.190;5.732;2022-12-07T09:42:39;99311.00;;;6.16;88.43
15670;BME280;18524;45.190;5.732;2022-12-07T09:47:32;99316.75;;;6.21;89.31
15670;BME280;18524;45.190;5.732;2022-12-07T09:52:28;99312.66;;;6.17;90.96
15670;BME280;18524;45.190;5.732;2022-12-07T09:57:27;99306.81;;;6.13;87.56
15670;BME280;18524;45.190;5.732;2022-12-07T10:02:37;99305.03;;;5.84;90.34
15670;BME280;18524;45.190;5.732;2022-12-07T10:07:29;99298.69;;;5.59;92.59
15670;BME280;18524;45.190;5.732;2022-12-07T10:12:19;99294.69;;;5.38;94.79
15670;BME280;18524;45.190;5.732;2022-12-07T10:17:30;99276.94;;;5.60;97.34
15670;BME280;18524;45.190;5.732;2022-12-07T10:22:20;99280.69;;;5.85;98.08
15670;BME280;18524;45.190;5.732;2022-12-07T10:27:19;99271.75;;;6.05;96.21
15670;BME280;18524;45.190;5.732;2022-12-07T10:37:15;99259.19;;;6.25;93.68
15670;BME280;18524;45.190;5.732;2022-12-07T10:57:41;99250.16;;;6.31;94.33
15670;BME280;18524;45.190;5.732;2022-12-07T11:22:20;99217.47;;;6.54;90.24
15670;BME280;18524;45.190;5.732;2022-12-07T11:27:19;99206.66;;;6.60;88.19
15670;BME280;18524;45.190;5.732;2022-12-07T11:37:33;99197.28;;;6.57;87.57
15670;BME280;18524;45.190;5.732;2022-12-07T11:42:25;99192.16;;;6.70;86.79
15670;BME280;18524;45.190;5.732;2022-12-07T11:47:36;99176.41;;;6.72;85.40
15670;BME280;18524;45.190;5.732;2022-12-07T11:57:36;99172.81;;;6.87;85.36
15670;BME280;18524;45.190;5.732;2022-12-07T12:02:36;99172.41;;;6.93;86.09
15670;BME280;18524;45.190;5.732;2022-12-07T12:07:29;99177.28;;;6.85;87.47
15670;BME280;18524;45.190;5.732;2022-12-07T12:22:52;99163.53;;;6.96;85.82
15670;BME280;18524;45.190;5.732;2022-12-07T12:27:46;99172.88;;;6.73;83.18
15670;BME280;18524;45.190;5.732;2022-12-07T12:32:42;99169.91;;;6.65;85.15
15670;BME280;18524;45.190;5.732;2022-12-07T12:42:43;99168.00;;;6.81;87.63
15670;BME280;18524;45.190;5.732;2022-12-07T12:47:41;99163.19;;;6.75;87.60
15670;BME280;18524;45.190;5.732;2022-12-07T12:57:30;99156.59;;;6.69;87.74
15670;BME280;18524;45.190;5.732;2022-12-07T13:02:29;99155.00;;;6.67;88.67
15670;BME280;18524;45.190;5.732;2022-12-07T13:12:42;99157.22;;;6.73;87.50
15670;BME280;18524;45.190;5.732;2022-12-07T13:27:28;99140.22;;;6.26;84.84
15670;BME280;18524;45.190;5.732;2022-12-07T13:32:24;99124.50;;;6.42;88.77
15670;BME280;18524;45.190;5.732;2022-12-07T13:42:31;99119.94;;;6.58;85.39
15670;BME280;18524;45.190;5.732;2022-12-07T13:47:32;99113.66;;;6.48;83.26
15670;BME280;18524;45.190;5.732;2022-12-07T13:52:26;99105.53;;;6.40;82.70
15670;BME280;18524;45.190;5.732;2022-12-07T13:57:17;99114.69;;;6.18;85.28
15670;BME280;18524;45.190;5.732;2022-12-07T14:02:26;99115.41;;;6.20;83.42
15670;BME280;18524;45.190;5.732;2022-12-07T14:07:29;99109.34;;;6.34;83.25
15670;BME280;18524;45.190;5.732;2022-12-07T14:12:19;99114.72;;;6.45;81.79
15670;BME280;18524;45.190;5.732;2022-12-07T14:17:19;99117.16;;;6.34;83.29
15670;BME280;18524;45.190;5.732;2022-12-07T14:27:19;99124.59;;;6.40;82.57
15670;BME280;18524;45.190;5.732;2022-12-07T14:32:23;99123.78;;;6.25;83.13
15670;BME280;18524;45.190;5.732;2022-12-07T14:37:18;99119.59;;;6.23;82.92
15670;BME280;18524;45.190;5.732;2022-12-07T14:42:08;99115.53;;;6.19;82.70
15670;BME280;18524;45.190;5.732;2022-12-07T14:46:59;99118.50;;;6.13;82.54
15670;BME280;18524;45.190;5.732;2022-12-07T14:51:49;99120.47;;;6.09;85.34
15670;BME280;18524;45.190;5.732;2022-12-07T14:56:40;99119.06;;;6.18;82.99
15670;BME280;18524;45.190;5.732;2022-12-07T15:01:30;99116.28;;;6.07;82.47
15670;BME280;18524;45.190;5.732;2022-12-07T15:06:20;99116.44;;;6.18;82.93
15670;BME280;18524;45.190;5.732;2022-12-07T15:11:18;99107.41;;;6.23;83.36
15670;BME280;18524;45.190;5.732;2022-12-07T15:16:10;99105.78;;;6.08;81.00
15670;BME280;18524;45.190;5.732;2022-12-07T15:21:02;99106.78;;;6.20;82.01
15670;BME280;18524;45.190;5.732;2022-12-07T15:25:53;99101.91;;;6.28;81.70
15670;BME280;18524;45.190;5.732;2022-12-07T15:30:44;99100.97;;;6.29;82.09
15670;BME280;18524;45.190;5.732;2022-12-07T15:35:42;99095.41;;;6.35;80.33
15670;BME280;18524;45.190;5.732;2022-12-07T15:40:34;99086.78;;;6.20;82.31
15670;BME280;18524;45.190;5.732;2022-12-07T15:45:25;99085.84;;;6.21;81.66
15670;BME280;18524;45.190;5.732;2022-12-07T15:50:16;99092.88;;;6.07;81.64
15670;BME280;18524;45.190;5.732;2022-12-07T15:55:07;99082.34;;;6.08;80.77
15670;BME280;18524;45.190;5.732;2022-12-07T15:59:59;99081.88;;;6.16;82.54
15670;BME280;18524;45.190;5.732;2022-12-07T16:04:49;99085.41;;;6.15;80.45
15670;BME280;18524;45.190;5.732;2022-12-07T16:09:40;99082.25;;;6.10;80.70
15670;BME280;18524;45.190;5.732;2022-12-07T16:14:30;99072.13;;;6.05;79.72
15670;BME280;18524;45.190;5.732;2022-12-07T16:19:23;99067.31;;;5.99;80.51
15670;BME280;18524;45.190;5.732;2022-12-07T16:24:13;99074.28;;;5.84;81.32
15670;BME280;18524;45.190;5.732;2022-12-07T16:29:05;99073.97;;;5.89;82.25
15670;BME280;18524;45.190;5.732;2022-12-07T16:33:57;99067.78;;;6.06;84.03
15670;BME280;18524;45.190;5.732;2022-12-07T16:38:48;99066.69;;;5.95;81.87
15670;BME280;18524;45.190;5.732;2022-12-07T16:43:38;99064.78;;;6.12;81.47
15670;BME280;18524;45.190;5.732;2022-12-07T16:48:29;99074.78;;;6.18;80.53
15670;BME280;18524;45.190;5.732;2022-12-07T16:53:20;99066.59;;;6.24;81.40
15670;BME280;18524;45.190;5.732;2022-12-07T16:58:12;99070.19;;;6.09;80.96
15670;BME280;18524;45.190;5.732;2022-12-07T17:03:03;99075.19;;;6.12;80.90
15670;BME280;18524;45.190;5.732;2022-12-07T17:07:54;99065.81;;;6.09;81.99
15670;BME280;18524;45.190;5.732;2022-12-07T17:12:45;99067.31;;;6.26;81.21
15670;BME280;18524;45.190;5.732;2022-12-07T17:17:36;99058.38;;;6.30;82.10
15670;BME280;18524;45.190;5.732;2022-12-07T17:22:26;99063.00;;;6.39;82.36
15670;BME280;18524;45.190;5.732;2022-12-07T17:27:17;99050.56;;;6.30;80.06
15670;BME280;18524;45.190;5.732;2022-12-07T17:32:07;99052.16;;;6.33;79.32
15670;BME280;18524;45.190;5.732;2022-12-07T17:36:57;99042.94;;;6.27;79.83
15670;BME280;18524;45.190;5.732;2022-12-07T17:41:48;99035.78;;;6.04;79.72
15670;BME280;18524;45.190;5.732;2022-12-07T17:46:57;99041.53;;;6.09;81.53
15670;BME280;18524;45.190;5.732;2022-12-07T17:51:48;99035.63;;;6.19;79.39
15670;BME280;18524;45.190;5.732;2022-12-07T17:56:58;99040.00;;;6.19;79.51
15670;BME280;18524;45.190;5.732;2022-12-07T18:01:48;99044.69;;;6.14;78.64
15670;BME280;18524;45.190;5.732;2022-12-07T18:06:39;99025.00;;;6.10;79.39
15670;BME280;18524;45.190;5.732;2022-12-07T18:11:29;99023.94;;;6.12;79.63
15670;BME280;18524;45.190;5.732;2022-12-07T18:16:23;99027.00;;;6.19;81.05
15670;BME280;18524;45.190;5.732;2022-12-07T18:21:16;99033.22;;;6.16;78.79
15670;BME280;18524;45.190;5.732;2022-12-07T18:26:07;99034.56;;;6.09;78.68
15670;BME280;18524;45.190;5.732;2022-12-07T18:30:57;99040.22;;;6.16;80.18
15670;BME280;18524;45.190;5.732;2022-12-07T18:35:48;99032.47;;;6.02;81.17
15670;BME280;18524;45.190;5.732;2022-12-07T18:40:40;99028.19;;;6.01;81.60
15670;BME280;18524;45.190;5.732;2022-12-07T18:45:37;99031.50;;;6.30;79.95
15670;BME280;18524;45.190;5.732;2022-12-07T18:50:28;99027.88;;;6.05;80.23
15670;BME280;18524;45.190;5.732;2022-12-07T18:55:19;99034.97;;;6.03;81.64
15670;BME280;18524;45.190;5.732;2022-12-07T19:00:10;99025.19;;;6.07;80.62
15670;BME280;18524;45.190;5.732;2022-12-07T19:05:01;99035.09;;;6.14;80.26
15670;BME280;18524;45.190;5.732;2022-12-07T19:09:51;99027.44;;;6.25;80.11
15670;BME280;18524;45.190;5.732;2022-12-07T19:14:41;99036.16;;;6.24;81.68
15670;BME280;18524;45.190;5.732;2022-12-07T19:19:35;99037.41;;;6.19;81.76
15670;BME280;18524;45.190;5.732;2022-12-07T19:24:26;99024.84;;;5.99;84.70
15670;BME280;18524;45.190;5.732;2022-12-07T19:29:17;99023.75;;;6.15;83.79
15670;BME280;18524;45.190;5.732;2022-12-07T19:34:10;99025.66;;;5.85;87.08
15670;BME280;18524;45.190;5.732;2022-12-07T19:39:01;99020.94;;;5.91;85.05
15670;BME280;18524;45.190;5.732;2022-12-07T19:43:51;99019.75;;;5.97;84.93
15670;BME280;18524;45.190;5.732;2022-12-07T19:48:42;99017.59;;;5.89;85.32
15670;BME280;18524;45.190;5.732;2022-12-07T19:53:32;99017.59;;;5.89;86.70
15670;BME280;18524;45.190;5.732;2022-12-07T19:58:22;99015.53;;;5.94;86.91
15670;BME280;18524;45.190;5.732;2022-12-07T20:03:13;99013.69;;;5.97;84.03
15670;BME280;18524;45.190;5.732;2022-12-07T20:08:03;99004.28;;;5.94;83.61
15670;BME280;18524;45.190;5.732;2022-12-07T20:12:53;99014.13;;;6.03;83.57
15670;BME280;18524;45.190;5.732;2022-12-07T20:18:02;99000.84;;;5.93;86.54
15670;BME280;18524;45.190;5.732;2022-12-07T20:22:53;99010.00;;;6.13;88.70
15670;BME280;18524;45.190;5.732;2022-12-07T20:27:43;99002.28;;;6.12;84.51
15670;BME280;18524;45.190;5.732;2022-12-07T20:32:33;98998.94;;;6.10;84.24
15670;BME280;18524;45.190;5.732;2022-12-07T20:37:24;99002.72;;;5.91;85.99
15670;BME280;18524;45.190;5.732;2022-12-07T20:42:14;99008.75;;;5.92;85.37
15670;BME280;18524;45.190;5.732;2022-12-07T20:47:23;99005.88;;;5.97;85.99
15670;BME280;18524;45.190;5.732;2022-12-07T20:52:13;99002.16;;;6.01;84.19
15670;BME280;18524;45.190;5.732;2022-12-07T20:57:04;99000.09;;;6.06;82.92
15670;BME280;18524;45.190;5.732;2022-12-07T21:01:55;99000.78;;;5.95;81.66
15670;BME280;18524;45.190;5.732;2022-12-07T21:06:45;98994.78;;;6.07;79.81
15670;BME280;18524;45.190;5.732;2022-12-07T21:11:35;98999.19;;;6.19;83.37
15670;BME280;18524;45.190;5.732;2022-12-07T21:16:29;98982.84;;;6.30;80.96
15670;BME280;18524;45.190;5.732;2022-12-07T21:21:19;98973.44;;;6.15;80.92
15670;BME280;18524;45.190;5.732;2022-12-07T21:26:12;98974.50;;;6.12;81.03
15670;BME280;18524;45.190;5.732;2022-12-07T21:31:03;98971.66;;;6.03;80.00
15670;BME280;18524;45.190;5.732;2022-12-07T21:35:53;98974.91;;;5.92;78.32
15670;BME280;18524;45.190;5.732;2022-12-07T21:40:44;98975.81;;;6.05;78.82
15670;BME280;18524;45.190;5.732;2022-12-07T21:45:34;98969.56;;;5.95;80.92
15670;BME280;18524;45.190;5.732;2022-12-07T21:50:24;98964.63;;;5.90;81.41
15670;BME280;18524;45.190;5.732;2022-12-07T21:55:15;98960.50;;;5.86;82.39
15670;BME280;18524;45.190;5.732;2022-12-07T22:00:06;98954.78;;;5.81;84.38
15670;BME280;18524;45.190;5.732;2022-12-07T22:04:56;98955.31;;;5.86;83.54
15670;BME280;18524;45.190;5.732;2022-12-07T22:09:47;98947.50;;;5.86;78.71
15670;BME280;18524;45.190;5.732;2022-12-07T22:14:37;98957.28;;;5.97;76.67
15670;BME280;18524;45.190;5.732;2022-12-07T22:19:46;98965.53;;;5.89;75.26
15670;BME280;18524;45.190;5.732;2022-12-07T22:24:36;98964.25;;;5.97;74.98
15670;BME280;18524;45.190;5.732;2022-12-07T22:29:27;98960.03;;;5.94;77.29
15670;BME280;18524;45.190;5.732;2022-12-07T22:34:17;98971.50;;;5.77;77.25
15670;BME280;18524;45.190;5.732;2022-12-07T22:39:08;98962.03;;;5.76;76.06
15670;BME280;18524;45.190;5.732;2022-12-07T22:43:59;98972.97;;;5.81;75.33
15670;BME280;18524;45.190;5.732;2022-12-07T22:48:52;98966.28;;;5.91;74.91
15670;BME280;18524;45.190;5.732;2022-12-07T22:53:42;98959.38;;;6.05;73.31
15670;BME280;18524;45.190;5.732;2022-12-07T22:58:32;98952.91;;;5.98;74.18
15670;BME280;18524;45.190;5.732;2022-12-07T23:03:23;98948.72;;;5.95;73.43
15670;BME280;18524;45.190;5.732;2022-12-07T23:08:14;98951.03;;;6.00;71.83
15670;BME280;18524;45.190;5.732;2022-12-07T23:13:05;98950.31;;;5.83;73.16
15670;BME280;18524;45.190;5.732;2022-12-07T23:18:14;98946.56;;;5.87;72.31
15670;BME280;18524;45.190;5.732;2022-12-07T23:23:05;98948.53;;;5.84;73.38
15670;BME280;18524;45.190;5.732;2022-12-07T23:27:55;98957.34;;;5.69;72.70
15670;BME280;18524;45.190;5.732;2022-12-07T23:32:46;98951.28;;;5.68;73.01
15670;BME280;18524;45.190;5.732;2022-12-07T23:37:36;98951.22;;;5.82;72.45
15670;BME280;18524;45.190;5.732;2022-12-07T23:42:27;98948.63;;;5.82;72.15
15670;BME280;18524;45.190;5.732;2022-12-07T23:47:17;98942.16;;;5.75;72.32
15670;BME280;18524;45.190;5.732;2022-12-07T23:52:08;98945.59;;;5.76;73.69
15670;BME280;18524;45.190;5.732;2022-12-07T23:56:58;98939.16;;;5.81;72.58
